sensor_id;sensor_type;location;lat;lon;timestamp;temperature;humidity
36990;DHT22;22898;52.102;5.776;2022-12-19T00:03:30;6.50;96.70
36990;DHT22;22898;52.102;5.776;2022-12-19T00:05:55;6.60;96.50
36990;DHT22;22898;52.102;5.776;2022-12-19T00:08:21;6.40;96.90
36990;DHT22;22898;52.102;5.776;2022-12-19T00:10:58;6.40;97.10
36990;DHT22;22898;52.102;5.776;2022-12-19T00:13:24;6.30;97.30
36990;DHT22;22898;52.102;5.776;2022-12-19T00:15:49;6.30;97.40
36990;DHT22;22898;52.102;5.776;2022-12-19T00:18:15;6.20;97.30
36990;DHT22;22898;52.102;5.776;2022-12-19T00:20:40;6.10;98.10
36990;DHT22;22898;52.102;5.776;2022-12-19T00:23:06;6.30;97.40
36990;DHT22;22898;52.102;5.776;2022-12-19T00:25:32;6.40;97.60
36990;DHT22;22898;52.102;5.776;2022-12-19T00:27:57;6.50;97.40
36990;DHT22;22898;52.102;5.776;2022-12-19T00:30:23;6.40;97.40
36990;DHT22;22898;52.102;5.776;2022-12-19T00:32:49;6.30;98.10
36990;DHT22;22898;52.102;5.776;2022-12-19T00:35:14;6.30;98.50
36990;DHT22;22898;52.102;5.776;2022-12-19T00:37:40;6.40;97.90
36990;DHT22;22898;52.102;5.776;2022-12-19T00:40:06;6.30;98.00
36990;DHT22;22898;52.102;5.776;2022-12-19T00:42:32;6.10;98.50
36990;DHT22;22898;52.102;5.776;2022-12-19T00:44:57;6.30;98.20
36990;DHT22;22898;52.102;5.776;2022-12-19T00:47:23;6.10;98.70
36990;DHT22;22898;52.102;5.776;2022-12-19T00:49:51;6.20;99.10
36990;DHT22;22898;52.102;5.776;2022-12-19T00:52:17;6.40;98.40
36990;DHT22;22898;52.102;5.776;2022-12-19T00:54:42;6.40;98.60
36990;DHT22;22898;52.102;5.776;2022-12-19T00:57:08;6.60;98.10
36990;DHT22;22898;52.102;5.776;2022-12-19T00:59:33;6.50;98.50
36990;DHT22;22898;52.102;5.776;2022-12-19T01:01:59;6.10;99.10
36990;DHT22;22898;52.102;5.776;2022-12-19T01:04:24;6.50;98.70
36990;DHT22;22898;52.102;5.776;2022-12-19T01:06:50;6.60;98.50
36990;DHT22;22898;52.102;5.776;2022-12-19T01:09:16;6.80;98.00
36990;DHT22;22898;52.102;5.776;2022-12-19T01:11:41;6.60;98.40
36990;DHT22;22898;52.102;5.776;2022-12-19T01:14:25;6.80;98.30
36990;DHT22;22898;52.102;5.776;2022-12-19T01:16:51;6.70;98.50
36990;DHT22;22898;52.102;5.776;2022-12-19T01:19:17;6.60;98.60
36990;DHT22;22898;52.102;5.776;2022-12-19T01:21:42;6.50;98.90
36990;DHT22;22898;52.102;5.776;2022-12-19T01:24:08;6.70;98.80
36990;DHT22;22898;52.102;5.776;2022-12-19T01:26:34;6.60;99.00
36990;DHT22;22898;52.102;5.776;2022-12-19T01:28:59;6.70;99.20
36990;DHT22;22898;52.102;5.776;2022-12-19T01:31:25;6.90;98.80
36990;DHT22;22898;52.102;5.776;2022-12-19T01:33:50;7.00;98.60
36990;DHT22;22898;52.102;5.776;2022-12-19T01:36:16;7.00;98.50
36990;DHT22;22898;52.102;5.776;2022-12-19T01:38:41;6.90;98.70
36990;DHT22;22898;52.102;5.776;2022-12-19T01:41:07;7.00;98.80
36990;DHT22;22898;52.102;5.776;2022-12-19T01:43:59;6.90;98.80
36990;DHT22;22898;52.102;5.776;2022-12-19T01:46:32;6.70;99.00
36990;DHT22;22898;52.102;5.776;2022-12-19T01:49:00;6.80;98.90
36990;DHT22;22898;52.102;5.776;2022-12-19T01:51:41;6.60;99.70
36990;DHT22;22898;52.102;5.776;2022-12-19T01:54:11;6.80;99.30
36990;DHT22;22898;52.102;5.776;2022-12-19T01:56:40;7.00;98.80
36990;DHT22;22898;52.102;5.776;2022-12-19T01:59:21;7.10;98.60
36990;DHT22;22898;52.102;5.776;2022-12-19T02:01:54;7.10;99.10
36990;DHT22;22898;52.102;5.776;2022-12-19T02:04:26;7.10;99.00
36990;DHT22;22898;52.102;5.776;2022-12-19T02:06:53;6.90;99.50
36990;DHT22;22898;52.102;5.776;2022-12-19T02:09:19;7.00;99.20
36990;DHT22;22898;52.102;5.776;2022-12-19T02:11:45;7.10;99.20
36990;DHT22;22898;52.102;5.776;2022-12-19T02:14:13;7.10;99.20
36990;DHT22;22898;52.102;5.776;2022-12-19T02:22:11;7.20;99.90
36990;DHT22;22898;52.102;5.776;2022-12-19T02:25:13;7.40;99.50
36990;DHT22;22898;52.102;5.776;2022-12-19T02:27:48;7.50;99.40
36990;DHT22;22898;52.102;5.776;2022-12-19T02:33:06;8.30;98.20
36990;DHT22;22898;52.102;5.776;2022-12-19T02:35:46;8.20;98.40
36990;DHT22;22898;52.102;5.776;2022-12-19T02:38:29;7.90;98.80
36990;DHT22;22898;52.102;5.776;2022-12-19T02:43:25;7.80;99.00
36990;DHT22;22898;52.102;5.776;2022-12-19T02:45:55;7.80;99.30
36990;DHT22;22898;52.102;5.776;2022-12-19T02:48:21;7.80;99.70
36990;DHT22;22898;52.102;5.776;2022-12-19T02:50:48;7.80;99.50
36990;DHT22;22898;52.102;5.776;2022-12-19T02:53:14;8.10;99.00
36990;DHT22;22898;52.102;5.776;2022-12-19T03:00:56;8.00;99.20
36990;DHT22;22898;52.102;5.776;2022-12-19T03:11:30;7.90;99.90
36990;DHT22;22898;52.102;5.776;2022-12-19T03:14:00;8.10;99.50
36990;DHT22;22898;52.102;5.776;2022-12-19T03:16:26;7.80;99.90
36990;DHT22;22898;52.102;5.776;2022-12-19T03:18:54;8.00;99.70
36990;DHT22;22898;52.102;5.776;2022-12-19T03:21:43;8.10;99.40
36990;DHT22;22898;52.102;5.776;2022-12-19T03:24:11;8.10;99.80
36990;DHT22;22898;52.102;5.776;2022-12-19T03:26:44;8.20;99.30
36990;DHT22;22898;52.102;5.776;2022-12-19T03:29:33;8.30;99.30
36990;DHT22;22898;52.102;5.776;2022-12-19T03:32:03;8.30;99.70
36990;DHT22;22898;52.102;5.776;2022-12-19T03:34:41;7.90;99.90
36990;DHT22;22898;52.102;5.776;2022-12-19T03:37:13;7.80;99.90
36990;DHT22;22898;52.102;5.776;2022-12-19T03:39:40;7.90;99.90
36990;DHT22;22898;52.102;5.776;2022-12-19T03:42:08;7.70;99.90
36990;DHT22;22898;52.102;5.776;2022-12-19T03:44:54;7.80;99.90
36990;DHT22;22898;52.102;5.776;2022-12-19T03:47:36;8.10;99.90
36990;DHT22;22898;52.102;5.776;2022-12-19T03:50:04;8.40;99.80
36990;DHT22;22898;52.102;5.776;2022-12-19T03:52:43;8.10;99.90
36990;DHT22;22898;52.102;5.776;2022-12-19T03:55:39;8.20;99.90
36990;DHT22;22898;52.102;5.776;2022-12-19T03:58:08;8.30;99.90
36990;DHT22;22898;52.102;5.776;2022-12-19T04:00:36;8.50;99.90
36990;DHT22;22898;52.102;5.776;2022-12-19T04:03:05;8.20;99.90
36990;DHT22;22898;52.102;5.776;2022-12-19T04:05:32;7.90;99.90
36990;DHT22;22898;52.102;5.776;2022-12-19T04:08:03;8.00;99.90
36990;DHT22;22898;52.102;5.776;2022-12-19T04:10:29;8.10;99.90
36990;DHT22;22898;52.102;5.776;2022-12-19T04:13:03;8.30;99.90
36990;DHT22;22898;52.102;5.776;2022-12-19T04:15:41;8.40;99.90
36990;DHT22;22898;52.102;5.776;2022-12-19T04:18:09;8.30;99.90
36990;DHT22;22898;52.102;5.776;2022-12-19T04:20:38;8.10;99.90
36990;DHT22;22898;52.102;5.776;2022-12-19T04:23:15;8.00;99.90
36990;DHT22;22898;52.102;5.776;2022-12-19T04:25:46;8.10;99.90
36990;DHT22;22898;52.102;5.776;2022-12-19T04:28:19;8.60;99.90
36990;DHT22;22898;52.102;5.776;2022-12-19T04:30:47;8.80;99.90
36990;DHT22;22898;52.102;5.776;2022-12-19T04:33:13;8.90;99.90
36990;DHT22;22898;52.102;5.776;2022-12-19T04:35:39;8.60;99.90
36990;DHT22;22898;52.102;5.776;2022-12-19T04:38:05;8.80;99.90
36990;DHT22;22898;52.102;5.776;2022-12-19T04:40:31;8.60;99.90
36990;DHT22;22898;52.102;5.776;2022-12-19T04:42:56;8.80;99.90
36990;DHT22;22898;52.102;5.776;2022-12-19T04:45:22;8.80;99.90
36990;DHT22;22898;52.102;5.776;2022-12-19T04:47:47;9.10;99.90
36990;DHT22;22898;52.102;5.776;2022-12-19T04:50:13;8.90;99.90
36990;DHT22;22898;52.102;5.776;2022-12-19T04:52:38;8.70;99.90
36990;DHT22;22898;52.102;5.776;2022-12-19T04:55:05;8.90;99.90
36990;DHT22;22898;52.102;5.776;2022-12-19T04:57:31;9.20;99.90
36990;DHT22;22898;52.102;5.776;2022-12-19T04:59:56;9.40;99.90
36990;DHT22;22898;52.102;5.776;2022-12-19T05:02:22;9.50;99.70
36990;DHT22;22898;52.102;5.776;2022-12-19T05:04:49;9.60;99.70
36990;DHT22;22898;52.102;5.776;2022-12-19T05:07:18;9.60;99.80
36990;DHT22;22898;52.102;5.776;2022-12-19T05:09:44;8.90;99.90
36990;DHT22;22898;52.102;5.776;2022-12-19T05:12:09;8.90;99.90
36990;DHT22;22898;52.102;5.776;2022-12-19T05:14:35;9.60;99.90
36990;DHT22;22898;52.102;5.776;2022-12-19T05:17:01;10.00;99.70
36990;DHT22;22898;52.102;5.776;2022-12-19T05:19:26;10.00;99.60
36990;DHT22;22898;52.102;5.776;2022-12-19T05:21:52;9.80;99.70
36990;DHT22;22898;52.102;5.776;2022-12-19T05:24:18;9.60;99.90
36990;DHT22;22898;52.102;5.776;2022-12-19T05:26:43;9.40;99.90
36990;DHT22;22898;52.102;5.776;2022-12-19T05:29:09;9.70;99.90
36990;DHT22;22898;52.102;5.776;2022-12-19T05:31:35;9.30;99.90
36990;DHT22;22898;52.102;5.776;2022-12-19T05:34:00;9.10;99.90
36990;DHT22;22898;52.102;5.776;2022-12-19T05:36:26;9.30;99.90
36990;DHT22;22898;52.102;5.776;2022-12-19T05:38:51;9.80;99.90
36990;DHT22;22898;52.102;5.776;2022-12-19T05:41:19;10.00;99.70
36990;DHT22;22898;52.102;5.776;2022-12-19T05:43:48;10.20;99.50
36990;DHT22;22898;52.102;5.776;2022-12-19T05:46:14;10.10;99.80
36990;DHT22;22898;52.102;5.776;2022-12-19T05:48:40;10.00;99.90
36990;DHT22;22898;52.102;5.776;2022-12-19T05:51:06;9.60;99.90
36990;DHT22;22898;52.102;5.776;2022-12-19T05:53:34;9.40;99.90
36990;DHT22;22898;52.102;5.776;2022-12-19T05:56:04;9.40;99.90
36990;DHT22;22898;52.102;5.776;2022-12-19T05:58:31;9.30;99.90
36990;DHT22;22898;52.102;5.776;2022-12-19T06:01:20;9.60;99.90
36990;DHT22;22898;52.102;5.776;2022-12-19T06:03:47;9.70;99.90
36990;DHT22;22898;52.102;5.776;2022-12-19T06:06:15;9.50;99.90
36990;DHT22;22898;52.102;5.776;2022-12-19T06:08:42;9.80;99.90
36990;DHT22;22898;52.102;5.776;2022-12-19T06:11:09;10.10;99.90
36990;DHT22;22898;52.102;5.776;2022-12-19T06:13:35;10.30;99.90
36990;DHT22;22898;52.102;5.776;2022-12-19T06:16:04;10.40;99.90
36990;DHT22;22898;52.102;5.776;2022-12-19T06:18:31;10.40;99.80
36990;DHT22;22898;52.102;5.776;2022-12-19T06:20:57;10.50;99.90
36990;DHT22;22898;52.102;5.776;2022-12-19T06:23:23;10.30;99.90
36990;DHT22;22898;52.102;5.776;2022-12-19T06:25:48;10.40;99.90
36990;DHT22;22898;52.102;5.776;2022-12-19T06:28:14;10.70;99.80
36990;DHT22;22898;52.102;5.776;2022-12-19T06:30:39;10.80;99.80
36990;DHT22;22898;52.102;5.776;2022-12-19T06:33:05;10.90;99.50
36990;DHT22;22898;52.102;5.776;2022-12-19T06:35:30;10.50;99.90
36990;DHT22;22898;52.102;5.776;2022-12-19T06:37:56;10.60;99.90
36990;DHT22;22898;52.102;5.776;2022-12-19T06:40:22;10.90;99.80
36990;DHT22;22898;52.102;5.776;2022-12-19T06:43:06;10.90;99.90
36990;DHT22;22898;52.102;5.776;2022-12-19T06:45:31;11.10;99.90
36990;DHT22;22898;52.102;5.776;2022-12-19T06:47:57;11.30;99.60
36990;DHT22;22898;52.102;5.776;2022-12-19T06:50:22;11.50;99.70
36990;DHT22;22898;52.102;5.776;2022-12-19T06:52:48;11.40;99.90
36990;DHT22;22898;52.102;5.776;2022-12-19T06:55:14;11.20;99.90
36990;DHT22;22898;52.102;5.776;2022-12-19T06:57:39;11.20;99.90
36990;DHT22;22898;52.102;5.776;2022-12-19T07:00:11;11.40;99.90
36990;DHT22;22898;52.102;5.776;2022-12-19T07:02:37;11.70;99.40
36990;DHT22;22898;52.102;5.776;2022-12-19T07:05:07;11.70;99.50
36990;DHT22;22898;52.102;5.776;2022-12-19T07:07:33;11.60;99.90
36990;DHT22;22898;52.102;5.776;2022-12-19T07:09:58;11.30;99.90
36990;DHT22;22898;52.102;5.776;2022-12-19T07:12:24;11.60;99.90
36990;DHT22;22898;52.102;5.776;2022-12-19T07:14:49;11.60;99.90
36990;DHT22;22898;52.102;5.776;2022-12-19T07:17:16;11.40;99.90
36990;DHT22;22898;52.102;5.776;2022-12-19T07:19:42;11.60;99.90
36990;DHT22;22898;52.102;5.776;2022-12-19T07:22:08;11.80;99.90
36990;DHT22;22898;52.102;5.776;2022-12-19T07:24:34;11.70;99.90
36990;DHT22;22898;52.102;5.776;2022-12-19T07:27:01;11.80;99.90
36990;DHT22;22898;52.102;5.776;2022-12-19T07:29:27;11.70;99.90
36990;DHT22;22898;52.102;5.776;2022-12-19T07:31:52;11.90;99.90
36990;DHT22;22898;52.102;5.776;2022-12-19T07:34:18;12.00;99.90
36990;DHT22;22898;52.102;5.776;2022-12-19T07:36:44;12.10;99.90
36990;DHT22;22898;52.102;5.776;2022-12-19T07:39:10;12.10;99.90
36990;DHT22;22898;52.102;5.776;2022-12-19T07:41:36;12.30;99.90
36990;DHT22;22898;52.102;5.776;2022-12-19T07:44:03;12.20;99.90
36990;DHT22;22898;52.102;5.776;2022-12-19T07:46:28;12.10;99.90
36990;DHT22;22898;52.102;5.776;2022-12-19T07:48:54;12.10;99.90
36990;DHT22;22898;52.102;5.776;2022-12-19T07:51:23;12.40;99.90
36990;DHT22;22898;52.102;5.776;2022-12-19T07:53:48;12.60;99.80
36990;DHT22;22898;52.102;5.776;2022-12-19T07:56:14;12.50;99.80
36990;DHT22;22898;52.102;5.776;2022-12-19T07:58:40;12.60;99.70
36990;DHT22;22898;52.102;5.776;2022-12-19T08:01:05;12.90;99.60
36990;DHT22;22898;52.102;5.776;2022-12-19T08:03:31;13.00;98.90
36990;DHT22;22898;52.102;5.776;2022-12-19T08:06:05;12.80;99.60
36990;DHT22;22898;52.102;5.776;2022-12-19T08:08:32;12.90;99.60
36990;DHT22;22898;52.102;5.776;2022-12-19T08:11:15;13.10;99.30
36990;DHT22;22898;52.102;5.776;2022-12-19T08:13:44;13.10;99.50
36990;DHT22;22898;52.102;5.776;2022-12-19T08:16:10;13.10;99.00
36990;DHT22;22898;52.102;5.776;2022-12-19T08:18:36;12.80;99.70
36990;DHT22;22898;52.102;5.776;2022-12-19T08:21:02;12.80;99.90
36990;DHT22;22898;52.102;5.776;2022-12-19T08:23:28;12.70;99.90
36990;DHT22;22898;52.102;5.776;2022-12-19T08:26:05;12.80;99.90
36990;DHT22;22898;52.102;5.776;2022-12-19T08:28:32;12.80;99.90
36990;DHT22;22898;52.102;5.776;2022-12-19T08:31:04;12.90;99.90
36990;DHT22;22898;52.102;5.776;2022-12-19T08:33:29;12.90;99.90
36990;DHT22;22898;52.102;5.776;2022-12-19T08:35:55;13.00;99.90
36990;DHT22;22898;52.102;5.776;2022-12-19T08:38:21;13.00;99.90
36990;DHT22;22898;52.102;5.776;2022-12-19T08:40:52;13.10;99.90
36990;DHT22;22898;52.102;5.776;2022-12-19T08:43:19;13.10;99.90
36990;DHT22;22898;52.102;5.776;2022-12-19T08:45:47;13.30;99.40
36990;DHT22;22898;52.102;5.776;2022-12-19T08:48:13;13.00;99.90
36990;DHT22;22898;52.102;5.776;2022-12-19T08:50:38;12.70;99.90
36990;DHT22;22898;52.102;5.776;2022-12-19T08:53:04;12.50;99.90
36990;DHT22;22898;52.102;5.776;2022-12-19T08:55:30;12.90;99.90
36990;DHT22;22898;52.102;5.776;2022-12-19T08:57:55;12.80;99.90
36990;DHT22;22898;52.102;5.776;2022-12-19T09:00:21;12.70;99.90
36990;DHT22;22898;52.102;5.776;2022-12-19T09:02:46;12.70;99.90
36990;DHT22;22898;52.102;5.776;2022-12-19T09:05:12;13.00;99.90
36990;DHT22;22898;52.102;5.776;2022-12-19T09:07:37;13.10;99.90
36990;DHT22;22898;52.102;5.776;2022-12-19T09:10:05;13.10;99.90
36990;DHT22;22898;52.102;5.776;2022-12-19T09:12:32;13.40;99.70
36990;DHT22;22898;52.102;5.776;2022-12-19T09:14:57;13.50;99.50
36990;DHT22;22898;52.102;5.776;2022-12-19T09:17:23;13.40;99.60
36990;DHT22;22898;52.102;5.776;2022-12-19T09:19:48;13.30;99.90
36990;DHT22;22898;52.102;5.776;2022-12-19T09:22:14;13.00;99.90
36990;DHT22;22898;52.102;5.776;2022-12-19T09:24:40;13.20;99.90
36990;DHT22;22898;52.102;5.776;2022-12-19T09:27:05;13.40;99.50
36990;DHT22;22898;52.102;5.776;2022-12-19T09:29:31;13.00;99.90
36990;DHT22;22898;52.102;5.776;2022-12-19T09:31:56;13.10;99.90
36990;DHT22;22898;52.102;5.776;2022-12-19T09:34:26;13.00;99.90
36990;DHT22;22898;52.102;5.776;2022-12-19T09:36:53;13.20;99.90
36990;DHT22;22898;52.102;5.776;2022-12-19T09:39:18;13.30;99.90
36990;DHT22;22898;52.102;5.776;2022-12-19T09:42:06;13.20;99.90
36990;DHT22;22898;52.102;5.776;2022-12-19T09:47:26;13.30;99.90
36990;DHT22;22898;52.102;5.776;2022-12-19T09:49:52;13.20;99.90
36990;DHT22;22898;52.102;5.776;2022-12-19T09:52:25;13.30;99.90
36990;DHT22;22898;52.102;5.776;2022-12-19T09:55:19;13.30;99.90
36990;DHT22;22898;52.102;5.776;2022-12-19T09:58:06;13.40;99.90
36990;DHT22;22898;52.102;5.776;2022-12-19T10:00:51;13.50;99.50
36990;DHT22;22898;52.102;5.776;2022-12-19T10:03:33;13.30;99.90
36990;DHT22;22898;52.102;5.776;2022-12-19T10:08:38;13.20;99.90
36990;DHT22;22898;52.102;5.776;2022-12-19T10:18:57;13.60;99.90
36990;DHT22;22898;52.102;5.776;2022-12-19T10:21:37;13.80;99.80
36990;DHT22;22898;52.102;5.776;2022-12-19T10:24:41;14.10;99.20
36990;DHT22;22898;52.102;5.776;2022-12-19T10:27:36;14.10;98.90
36990;DHT22;22898;52.102;5.776;2022-12-19T10:30:20;13.40;99.90
36990;DHT22;22898;52.102;5.776;2022-12-19T10:33:14;13.50;99.90
36990;DHT22;22898;52.102;5.776;2022-12-19T10:35:43;13.40;99.90
36990;DHT22;22898;52.102;5.776;2022-12-19T10:38:31;14.00;99.90
36990;DHT22;22898;52.102;5.776;2022-12-19T10:44:01;14.30;99.50
36990;DHT22;22898;52.102;5.776;2022-12-19T10:46:45;14.40;99.80
36990;DHT22;22898;52.102;5.776;2022-12-19T10:49:13;14.40;99.10
36990;DHT22;22898;52.102;5.776;2022-12-19T10:51:39;14.00;99.90
36990;DHT22;22898;52.102;5.776;2022-12-19T10:54:05;13.90;99.90
36990;DHT22;22898;52.102;5.776;2022-12-19T10:56:31;13.90;99.90
36990;DHT22;22898;52.102;5.776;2022-12-19T10:58:58;14.20;99.70
36990;DHT22;22898;52.102;5.776;2022-12-19T11:01:34;14.10;99.90
36990;DHT22;22898;52.102;5.776;2022-12-19T11:07:08;14.50;99.40
36990;DHT22;22898;52.102;5.776;2022-12-19T11:09:44;14.40;99.70
36990;DHT22;22898;52.102;5.776;2022-12-19T11:12:16;14.10;99.90
36990;DHT22;22898;52.102;5.776;2022-12-19T11:14:51;14.40;99.50
36990;DHT22;22898;52.102;5.776;2022-12-19T11:17:23;14.50;99.20
36990;DHT22;22898;52.102;5.776;2022-12-19T11:19:49;14.60;98.90
36990;DHT22;22898;52.102;5.776;2022-12-19T11:22:21;14.50;99.00
36990;DHT22;22898;52.102;5.776;2022-12-19T11:24:52;14.40;99.60
36990;DHT22;22898;52.102;5.776;2022-12-19T11:27:43;14.50;98.80
36990;DHT22;22898;52.102;5.776;2022-12-19T11:32:45;14.30;99.80
36990;DHT22;22898;52.102;5.776;2022-12-19T11:37:49;14.10;99.90
36990;DHT22;22898;52.102;5.776;2022-12-19T11:45:39;14.80;98.50
36990;DHT22;22898;52.102;5.776;2022-12-19T11:48:45;14.70;99.20
36990;DHT22;22898;52.102;5.776;2022-12-19T11:51:20;15.00;98.20
36990;DHT22;22898;52.102;5.776;2022-12-19T11:56:23;14.80;98.80
36990;DHT22;22898;52.102;5.776;2022-12-19T11:58:55;14.70;99.20
36990;DHT22;22898;52.102;5.776;2022-12-19T12:01:41;14.70;99.10
36990;DHT22;22898;52.102;5.776;2022-12-19T12:06:59;14.70;99.30
36990;DHT22;22898;52.102;5.776;2022-12-19T12:09:42;14.90;99.10
36990;DHT22;22898;52.102;5.776;2022-12-19T12:12:30;14.80;99.10
36990;DHT22;22898;52.102;5.776;2022-12-19T12:23:27;14.10;99.90
36990;DHT22;22898;52.102;5.776;2022-12-19T12:26:17;14.40;99.90
36990;DHT22;22898;52.102;5.776;2022-12-19T12:34:44;15.20;98.30
36990;DHT22;22898;52.102;5.776;2022-12-19T12:40:51;15.40;97.90
36990;DHT22;22898;52.102;5.776;2022-12-19T12:44:06;15.50;97.40
36990;DHT22;22898;52.102;5.776;2022-12-19T12:46:47;15.20;98.30
36990;DHT22;22898;52.102;5.776;2022-12-19T12:49:22;15.40;97.80
36990;DHT22;22898;52.102;5.776;2022-12-19T12:51:52;15.40;97.90
36990;DHT22;22898;52.102;5.776;2022-12-19T12:54:18;15.50;97.50
36990;DHT22;22898;52.102;5.776;2022-12-19T12:56:45;15.60;97.20
36990;DHT22;22898;52.102;5.776;2022-12-19T13:02:05;15.20;97.80
36990;DHT22;22898;52.102;5.776;2022-12-19T13:04:33;15.10;97.70
36990;DHT22;22898;52.102;5.776;2022-12-19T13:07:26;15.30;97.40
36990;DHT22;22898;52.102;5.776;2022-12-19T13:10:15;15.50;97.20
36990;DHT22;22898;52.102;5.776;2022-12-19T13:27:56;15.70;96.50
36990;DHT22;22898;52.102;5.776;2022-12-19T13:30:23;15.90;96.70
36990;DHT22;22898;52.102;5.776;2022-12-19T13:33:04;16.00;96.20
36990;DHT22;22898;52.102;5.776;2022-12-19T13:35:31;16.00;96.20
36990;DHT22;22898;52.102;5.776;2022-12-19T13:38:22;16.30;95.50
36990;DHT22;22898;52.102;5.776;2022-12-19T13:41:04;16.30;95.40
36990;DHT22;22898;52.102;5.776;2022-12-19T13:43:49;16.30;95.50
36990;DHT22;22898;52.102;5.776;2022-12-19T13:46:39;16.20;95.60
36990;DHT22;22898;52.102;5.776;2022-12-19T13:49:25;16.00;96.00
36990;DHT22;22898;52.102;5.776;2022-12-19T13:51:54;15.90;96.50
36990;DHT22;22898;52.102;5.776;2022-12-19T13:54:23;16.00;95.80
36990;DHT22;22898;52.102;5.776;2022-12-19T13:56:51;16.10;95.50
36990;DHT22;22898;52.102;5.776;2022-12-19T13:59:18;15.80;96.10
36990;DHT22;22898;52.102;5.776;2022-12-19T14:01:45;15.70;96.20
36990;DHT22;22898;52.102;5.776;2022-12-19T14:04:27;15.70;96.10
36990;DHT22;22898;52.102;5.776;2022-12-19T14:07:03;15.80;96.10
36990;DHT22;22898;52.102;5.776;2022-12-19T14:09:31;15.60;96.30
36990;DHT22;22898;52.102;5.776;2022-12-19T14:12:00;15.70;96.20
36990;DHT22;22898;52.102;5.776;2022-12-19T14:14:26;15.90;96.10
36990;DHT22;22898;52.102;5.776;2022-12-19T14:17:20;16.10;95.50
36990;DHT22;22898;52.102;5.776;2022-12-19T14:19:48;16.10;95.30
36990;DHT22;22898;52.102;5.776;2022-12-19T14:25:00;16.00;95.40
36990;DHT22;22898;52.102;5.776;2022-12-19T14:27:41;16.10;95.20
36990;DHT22;22898;52.102;5.776;2022-12-19T14:30:18;16.10;95.20
36990;DHT22;22898;52.102;5.776;2022-12-19T14:32:46;16.10;94.90
36990;DHT22;22898;52.102;5.776;2022-12-19T14:35:16;16.10;95.30
36990;DHT22;22898;52.102;5.776;2022-12-19T14:37:43;15.90;95.20
36990;DHT22;22898;52.102;5.776;2022-12-19T14:40:26;15.50;96.00
36990;DHT22;22898;52.102;5.776;2022-12-19T14:43:00;15.60;95.50
36990;DHT22;22898;52.102;5.776;2022-12-19T14:45:46;15.80;95.30
36990;DHT22;22898;52.102;5.776;2022-12-19T14:48:31;15.80;95.40
36990;DHT22;22898;52.102;5.776;2022-12-19T14:53:36;15.50;95.60
36990;DHT22;22898;52.102;5.776;2022-12-19T14:56:14;15.50;95.40
36990;DHT22;22898;52.102;5.776;2022-12-19T14:58:41;15.50;95.60
36990;DHT22;22898;52.102;5.776;2022-12-19T15:01:27;15.50;95.70
36990;DHT22;22898;52.102;5.776;2022-12-19T15:04:14;15.70;95.10
36990;DHT22;22898;52.102;5.776;2022-12-19T15:06:43;15.40;95.70
36990;DHT22;22898;52.102;5.776;2022-12-19T15:09:15;15.40;95.60
36990;DHT22;22898;52.102;5.776;2022-12-19T15:11:44;15.50;95.70
36990;DHT22;22898;52.102;5.776;2022-12-19T15:14:44;15.60;95.10
36990;DHT22;22898;52.102;5.776;2022-12-19T15:17:21;15.40;95.60
36990;DHT22;22898;52.102;5.776;2022-12-19T15:19:48;15.00;96.10
36990;DHT22;22898;52.102;5.776;2022-12-19T15:22:14;15.10;95.90
36990;DHT22;22898;52.102;5.776;2022-12-19T15:24:39;15.30;95.40
36990;DHT22;22898;52.102;5.776;2022-12-19T15:27:13;15.60;95.30
36990;DHT22;22898;52.102;5.776;2022-12-19T15:29:40;15.50;95.20
36990;DHT22;22898;52.102;5.776;2022-12-19T15:32:07;15.60;94.80
36990;DHT22;22898;52.102;5.776;2022-12-19T15:34:34;15.60;94.90
36990;DHT22;22898;52.102;5.776;2022-12-19T15:37:00;15.60;94.70
36990;DHT22;22898;52.102;5.776;2022-12-19T15:39:26;15.30;95.20
36990;DHT22;22898;52.102;5.776;2022-12-19T15:41:55;15.40;95.20
36990;DHT22;22898;52.102;5.776;2022-12-19T15:44:23;15.40;95.10
36990;DHT22;22898;52.102;5.776;2022-12-19T15:46:50;15.40;95.00
36990;DHT22;22898;52.102;5.776;2022-12-19T15:49:17;15.60;94.90
36990;DHT22;22898;52.102;5.776;2022-12-19T15:51:44;15.90;94.20
36990;DHT22;22898;52.102;5.776;2022-12-19T15:54:09;16.00;94.00
36990;DHT22;22898;52.102;5.776;2022-12-19T15:56:41;16.20;93.80
36990;DHT22;22898;52.102;5.776;2022-12-19T15:59:37;16.30;93.60
36990;DHT22;22898;52.102;5.776;2022-12-19T16:02:15;16.40;93.60
36990;DHT22;22898;52.102;5.776;2022-12-19T16:04:40;16.30;93.60
36990;DHT22;22898;52.102;5.776;2022-12-19T16:07:21;16.50;93.30
36990;DHT22;22898;52.102;5.776;2022-12-19T16:09:47;16.50;93.10
36990;DHT22;22898;52.102;5.776;2022-12-19T16:12:15;16.60;93.10
36990;DHT22;22898;52.102;5.776;2022-12-19T16:14:43;16.70;92.80
36990;DHT22;22898;52.102;5.776;2022-12-19T16:17:13;16.50;92.90
36990;DHT22;22898;52.102;5.776;2022-12-19T16:19:40;16.50;92.90
36990;DHT22;22898;52.102;5.776;2022-12-19T16:22:18;16.40;93.00
36990;DHT22;22898;52.102;5.776;2022-12-19T16:24:45;16.30;93.30
36990;DHT22;22898;52.102;5.776;2022-12-19T16:27:21;16.00;93.60
36990;DHT22;22898;52.102;5.776;2022-12-19T16:29:47;15.50;94.20
36990;DHT22;22898;52.102;5.776;2022-12-19T16:32:13;15.30;94.70
36990;DHT22;22898;52.102;5.776;2022-12-19T16:34:39;15.30;94.80
36990;DHT22;22898;52.102;5.776;2022-12-19T16:37:04;15.20;95.10
36990;DHT22;22898;52.102;5.776;2022-12-19T16:39:30;15.50;94.50
36990;DHT22;22898;52.102;5.776;2022-12-19T16:41:56;15.90;93.70
36990;DHT22;22898;52.102;5.776;2022-12-19T16:44:22;15.90;93.70
36990;DHT22;22898;52.102;5.776;2022-12-19T16:46:50;15.60;94.10
36990;DHT22;22898;52.102;5.776;2022-12-19T16:49:18;15.60;94.00
36990;DHT22;22898;52.102;5.776;2022-12-19T16:51:45;15.70;94.00
36990;DHT22;22898;52.102;5.776;2022-12-19T16:54:12;15.80;93.90
36990;DHT22;22898;52.102;5.776;2022-12-19T16:56:40;15.80;94.00
36990;DHT22;22898;52.102;5.776;2022-12-19T16:59:15;15.70;94.20
36990;DHT22;22898;52.102;5.776;2022-12-19T17:01:43;15.70;93.90
36990;DHT22;22898;52.102;5.776;2022-12-19T17:04:14;15.80;94.10
36990;DHT22;22898;52.102;5.776;2022-12-19T17:06:40;16.10;93.50
36990;DHT22;22898;52.102;5.776;2022-12-19T17:09:06;16.10;93.70
36990;DHT22;22898;52.102;5.776;2022-12-19T17:11:32;16.00;93.50
36990;DHT22;22898;52.102;5.776;2022-12-19T17:14:05;16.10;93.30
36990;DHT22;22898;52.102;5.776;2022-12-19T17:16:32;16.10;93.30
36990;DHT22;22898;52.102;5.776;2022-12-19T17:18:59;16.10;93.40
36990;DHT22;22898;52.102;5.776;2022-12-19T17:21:25;15.50;94.50
36990;DHT22;22898;52.102;5.776;2022-12-19T17:23:51;15.70;94.00
36990;DHT22;22898;52.102;5.776;2022-12-19T17:26:16;15.70;93.90
36990;DHT22;22898;52.102;5.776;2022-12-19T17:28:42;15.70;93.90
36990;DHT22;22898;52.102;5.776;2022-12-19T17:31:25;15.90;93.80
36990;DHT22;22898;52.102;5.776;2022-12-19T17:33:54;15.70;94.20
36990;DHT22;22898;52.102;5.776;2022-12-19T17:36:21;15.90;93.40
36990;DHT22;22898;52.102;5.776;2022-12-19T17:38:49;15.30;94.70